sensor_id;sensor_type;location;lat;lon;timestamp;P1;durP1;ratioP1;P2;durP2;ratioP2
45650;SDS011;31365;48.858;8.530;2023-06-10T00:01:37;4.20;;;3.90;;
45650;SDS011;31365;48.858;8.530;2023-06-10T00:04:14;4.97;;;4.13;;
45650;SDS011;31365;48.858;8.530;2023-06-10T00:06:45;5.32;;;3.80;;
45650;SDS011;31365;48.858;8.530;2023-06-10T00:09:16;4.25;;;3.85;;
45650;SDS011;31365;48.858;8.530;2023-06-10T00:11:45;4.63;;;4.22;;
45650;SDS011;31365;48.858;8.530;2023-06-10T00:14:17;4.65;;;3.65;;
45650;SDS011;31365;48.858;8.530;2023-06-10T00:16:46;4.72;;;4.30;;
45650;SDS011;31365;48.858;8.530;2023-06-10T00:19:15;4.78;;;4.38;;
45650;SDS011;31365;48.858;8.530;2023-06-10T00:21:47;4.80;;;4.38;;
45650;SDS011;31365;48.858;8.530;2023-06-10T00:24:39;5.20;;;4.45;;
45650;SDS011;31365;48.858;8.530;2023-06-10T00:27:08;4.20;;;3.78;;
45650;SDS011;31365;48.858;8.530;2023-06-10T00:29:37;4.65;;;4.07;;
45650;SDS011;31365;48.858;8.530;2023-06-10T00:32:07;4.90;;;4.38;;
45650;SDS011;31365;48.858;8.530;2023-06-10T00:34:38;5.38;;;4.25;;
45650;SDS011;31365;48.858;8.530;2023-06-10T00:37:08;4.95;;;4.55;;
45650;SDS011;31365;48.858;8.530;2023-06-10T00:39:36;4.65;;;4.25;;
45650;SDS011;31365;48.858;8.530;2023-06-10T00:42:05;7.78;;;4.28;;
45650;SDS011;31365;48.858;8.530;2023-06-10T00:44:38;5.43;;;4.35;;
45650;SDS011;31365;48.858;8.530;2023-06-10T00:47:09;5.22;;;4.72;;
45650;SDS011;31365;48.858;8.530;2023-06-10T00:49:38;5.15;;;4.63;;
45650;SDS011;31365;48.858;8.530;2023-06-10T00:52:08;4.78;;;4.35;;
45650;SDS011;31365;48.858;8.530;2023-06-10T00:54:39;4.32;;;3.95;;
45650;SDS011;31365;48.858;8.530;2023-06-10T00:57:12;4.80;;;4.32;;
45650;SDS011;31365;48.858;8.530;2023-06-10T00:59:41;5.47;;;4.68;;
45650;SDS011;31365;48.858;8.530;2023-06-10T01:02:16;5.32;;;4.13;;
45650;SDS011;31365;48.858;8.530;2023-06-10T01:04:45;5.28;;;3.97;;
45650;SDS011;31365;48.858;8.530;2023-06-10T01:07:20;5.75;;;4.32;;
45650;SDS011;31365;48.858;8.530;2023-06-10T01:09:54;4.95;;;4.55;;
45650;SDS011;31365;48.858;8.530;2023-06-10T01:12:31;5.75;;;4.68;;
45650;SDS011;31365;48.858;8.530;2023-06-10T01:15:07;4.80;;;4.10;;
45650;SDS011;31365;48.858;8.530;2023-06-10T01:17:51;5.32;;;4.60;;
45650;SDS011;31365;48.858;8.530;2023-06-10T01:20:25;4.38;;;3.88;;
45650;SDS011;31365;48.858;8.530;2023-06-10T01:22:59;5.00;;;4.50;;
45650;SDS011;31365;48.858;8.530;2023-06-10T01:25:33;5.55;;;4.35;;
45650;SDS011;31365;48.858;8.530;2023-06-10T01:28:08;4.97;;;4.55;;
45650;SDS011;31365;48.858;8.530;2023-06-10T01:30:46;5.82;;;4.65;;
45650;SDS011;31365;48.858;8.530;2023-06-10T01:33:28;6.70;;;4.50;;
45650;SDS011;31365;48.858;8.530;2023-06-10T01:36:01;5.72;;;4.60;;
45650;SDS011;31365;48.858;8.530;2023-06-10T01:38:52;4.97;;;4.57;;
45650;SDS011;31365;48.858;8.530;2023-06-10T01:41:22;4.75;;;4.25;;
45650;SDS011;31365;48.858;8.530;2023-06-10T01:43:51;4.75;;;4.20;;
45650;SDS011;31365;48.858;8.530;2023-06-10T01:46:20;6.53;;;4.72;;
45650;SDS011;31365;48.858;8.530;2023-06-10T01:48:50;4.55;;;4.03;;
45650;SDS011;31365;48.858;8.530;2023-06-10T01:51:19;5.10;;;3.92;;
45650;SDS011;31365;48.858;8.530;2023-06-10T01:53:48;5.32;;;4.68;;
45650;SDS011;31365;48.858;8.530;2023-06-10T01:56:18;4.90;;;4.50;;
45650;SDS011;31365;48.858;8.530;2023-06-10T01:59:16;5.85;;;4.43;;
45650;SDS011;31365;48.858;8.530;2023-06-10T02:01:44;5.45;;;4.20;;
45650;SDS011;31365;48.858;8.530;2023-06-10T02:04:13;4.72;;;4.32;;
45650;SDS011;31365;48.858;8.530;2023-06-10T02:06:43;4.30;;;4.00;;
45650;SDS011;31365;48.858;8.530;2023-06-10T02:09:11;5.77;;;5.27;;
45650;SDS011;31365;48.858;8.530;2023-06-10T02:11:41;4.50;;;4.20;;
45650;SDS011;31365;48.858;8.530;2023-06-10T02:14:10;5.03;;;4.07;;
45650;SDS011;31365;48.858;8.530;2023-06-10T02:16:39;4.47;;;3.92;;
45650;SDS011;31365;48.858;8.530;2023-06-10T02:19:08;5.07;;;4.57;;
45650;SDS011;31365;48.858;8.530;2023-06-10T02:21:37;5.50;;;4.47;;
45650;SDS011;31365;48.858;8.530;2023-06-10T02:24:06;4.95;;;4.55;;
45650;SDS011;31365;48.858;8.530;2023-06-10T02:26:35;4.80;;;4.40;;
45650;SDS011;31365;48.858;8.530;2023-06-10T02:29:06;4.60;;;4.20;;
45650;SDS011;31365;48.858;8.530;2023-06-10T02:31:34;5.05;;;4.55;;
45650;SDS011;31365;48.858;8.530;2023-06-10T02:34:04;5.00;;;4.50;;
45650;SDS011;31365;48.858;8.530;2023-06-10T02:36:33;5.38;;;4.35;;
45650;SDS011;31365;48.858;8.530;2023-06-10T02:39:03;4.47;;;4.07;;
45650;SDS011;31365;48.858;8.530;2023-06-10T02:41:33;5.30;;;4.90;;
45650;SDS011;31365;48.858;8.530;2023-06-10T02:44:02;6.13;;;4.20;;
45650;SDS011;31365;48.858;8.530;2023-06-10T02:46:32;5.38;;;4.88;;
45650;SDS011;31365;48.858;8.530;2023-06-10T02:49:02;4.93;;;4.47;;
45650;SDS011;31365;48.858;8.530;2023-06-10T02:51:30;6.77;;;4.27;;
45650;SDS011;31365;48.858;8.530;2023-06-10T02:54:03;5.17;;;4.53;;
45650;SDS011;31365;48.858;8.530;2023-06-10T02:56:32;4.83;;;4.40;;
45650;SDS011;31365;48.858;8.530;2023-06-10T02:59:03;5.00;;;4.60;;
45650;SDS011;31365;48.858;8.530;2023-06-10T03:01:36;4.80;;;4.40;;
45650;SDS011;31365;48.858;8.530;2023-06-10T03:04:09;7.17;;;4.23;;
45650;SDS011;31365;48.858;8.530;2023-06-10T03:06:48;5.90;;;4.40;;
45650;SDS011;31365;48.858;8.530;2023-06-10T03:09:22;5.63;;;4.50;;
45650;SDS011;31365;48.858;8.530;2023-06-10T03:11:55;4.47;;;4.17;;
45650;SDS011;31365;48.858;8.530;2023-06-10T03:14:25;4.57;;;4.17;;
45650;SDS011;31365;48.858;8.530;2023-06-10T03:16:55;4.87;;;4.37;;
45650;SDS011;31365;48.858;8.530;2023-06-10T03:19:24;4.97;;;4.50;;
45650;SDS011;31365;48.858;8.530;2023-06-10T03:22:06;5.10;;;4.70;;
45650;SDS011;31365;48.858;8.530;2023-06-10T03:25:00;4.97;;;4.57;;
45650;SDS011;31365;48.858;8.530;2023-06-10T03:27:28;5.57;;;4.50;;
45650;SDS011;31365;48.858;8.530;2023-06-10T03:30:01;5.03;;;4.63;;
45650;SDS011;31365;48.858;8.530;2023-06-10T03:32:32;5.10;;;4.70;;
45650;SDS011;31365;48.858;8.530;2023-06-10T03:35:06;5.10;;;4.60;;
45650;SDS011;31365;48.858;8.530;2023-06-10T03:37:37;5.13;;;4.73;;
45650;SDS011;31365;48.858;8.530;2023-06-10T03:40:06;5.17;;;4.67;;
45650;SDS011;31365;48.858;8.530;2023-06-10T03:42:40;4.27;;;3.87;;
45650;SDS011;31365;48.858;8.530;2023-06-10T03:45:12;5.47;;;5.00;;
45650;SDS011;31365;48.858;8.530;2023-06-10T03:47:42;5.37;;;4.87;;
45650;SDS011;31365;48.858;8.530;2023-06-10T03:50:13;5.07;;;4.50;;
45650;SDS011;31365;48.858;8.530;2023-06-10T03:52:44;4.80;;;4.40;;
45650;SDS011;31365;48.858;8.530;2023-06-10T03:55:15;4.97;;;4.57;;
45650;SDS011;31365;48.858;8.530;2023-06-10T03:57:44;5.67;;;4.70;;
45650;SDS011;31365;48.858;8.530;2023-06-10T04:00:14;5.13;;;4.13;;
45650;SDS011;31365;48.858;8.530;2023-06-10T04:02:45;5.10;;;4.60;;
45650;SDS011;31365;48.858;8.530;2023-06-10T04:05:30;5.13;;;4.70;;
45650;SDS011;31365;48.858;8.530;2023-06-10T04:07:59;5.30;;;4.90;;
45650;SDS011;31365;48.858;8.530;2023-06-10T04:10:29;4.85;;;4.45;;
45650;SDS011;31365;48.858;8.530;2023-06-10T04:12:59;4.70;;;4.30;;
45650;SDS011;31365;48.858;8.530;2023-06-10T04:15:32;5.23;;;4.83;;
45650;SDS011;31365;48.858;8.530;2023-06-10T04:18:07;4.83;;;4.43;;
45650;SDS011;31365;48.858;8.530;2023-06-10T04:20:36;5.00;;;4.60;;
45650;SDS011;31365;48.858;8.530;2023-06-10T04:23:04;4.60;;;4.20;;
45650;SDS011;31365;48.858;8.530;2023-06-10T04:25:33;5.20;;;4.50;;
45650;SDS011;31365;48.858;8.530;2023-06-10T04:28:02;5.10;;;4.70;;
45650;SDS011;31365;48.858;8.530;2023-06-10T04:30:32;4.87;;;4.47;;
45650;SDS011;31365;48.858;8.530;2023-06-10T04:33:01;4.67;;;4.27;;
45650;SDS011;31365;48.858;8.530;2023-06-10T04:35:31;4.40;;;4.10;;
45650;SDS011;31365;48.858;8.530;2023-06-10T04:38:01;4.83;;;4.43;;
45650;SDS011;31365;48.858;8.530;2023-06-10T04:40:31;6.82;;;4.35;;
45650;SDS011;31365;48.858;8.530;2023-06-10T04:43:01;7.55;;;4.70;;
45650;SDS011;31365;48.858;8.530;2023-06-10T04:45:32;5.27;;;4.70;;
45650;SDS011;31365;48.858;8.530;2023-06-10T04:48:05;5.60;;;4.28;;
45650;SDS011;31365;48.858;8.530;2023-06-10T04:50:36;4.82;;;4.43;;
45650;SDS011;31365;48.858;8.530;2023-06-10T04:53:05;4.57;;;4.17;;
45650;SDS011;31365;48.858;8.530;2023-06-10T04:55:37;4.65;;;4.10;;
45650;SDS011;31365;48.858;8.530;2023-06-10T04:58:06;4.10;;;3.70;;
45650;SDS011;31365;48.858;8.530;2023-06-10T05:00:35;4.30;;;3.90;;
45650;SDS011;31365;48.858;8.530;2023-06-10T05:03:03;4.80;;;4.38;;
45650;SDS011;31365;48.858;8.530;2023-06-10T05:05:32;4.13;;;3.83;;
45650;SDS011;31365;48.858;8.530;2023-06-10T05:08:04;3.92;;;3.63;;
45650;SDS011;31365;48.858;8.530;2023-06-10T05:10:34;3.95;;;3.65;;
45650;SDS011;31365;48.858;8.530;2023-06-10T05:13:03;4.82;;;4.32;;
45650;SDS011;31365;48.858;8.530;2023-06-10T05:15:33;4.45;;;4.00;;
45650;SDS011;31365;48.858;8.530;2023-06-10T05:18:03;4.43;;;4.07;;
45650;SDS011;31365;48.858;8.530;2023-06-10T05:20:32;4.28;;;3.97;;
45650;SDS011;31365;48.858;8.530;2023-06-10T05:23:00;5.45;;;4.20;;
45650;SDS011;31365;48.858;8.530;2023-06-10T05:25:31;4.32;;;3.92;;
45650;SDS011;31365;48.858;8.530;2023-06-10T05:28:00;4.53;;;4.10;;
45650;SDS011;31365;48.858;8.530;2023-06-10T05:30:29;4.90;;;4.25;;
45650;SDS011;31365;48.858;8.530;2023-06-10T05:32:58;4.80;;;4.40;;
45650;SDS011;31365;48.858;8.530;2023-06-10T05:35:26;4.70;;;4.30;;
45650;SDS011;31365;48.858;8.530;2023-06-10T06:06:44;4.93;;;4.10;;
45650;SDS011;31365;48.858;8.530;2023-06-10T06:09:12;4.82;;;4.43;;
45650;SDS011;31365;48.858;8.530;2023-06-10T06:11:41;4.47;;;4.10;;
45650;SDS011;31365;48.858;8.530;2023-06-10T06:14:11;4.47;;;4.10;;
45650;SDS011;31365;48.858;8.530;2023-06-10T06:16:39;4.80;;;4.40;;
45650;SDS011;31365;48.858;8.530;2023-06-10T06:19:09;7.88;;;4.80;;
45650;SDS011;31365;48.858;8.530;2023-06-10T06:21:38;4.63;;;4.32;;
45650;SDS011;31365;48.858;8.530;2023-06-10T06:24:09;4.78;;;4.38;;
45650;SDS011;31365;48.858;8.530;2023-06-10T06:26:38;4.68;;;4.28;;
45650;SDS011;31365;48.858;8.530;2023-06-10T06:29:06;4.82;;;4.40;;
45650;SDS011;31365;48.858;8.530;2023-06-10T06:31:36;5.88;;;4.97;;
45650;SDS011;31365;48.858;8.530;2023-06-10T06:34:04;5.15;;;4.32;;
45650;SDS011;31365;48.858;8.530;2023-06-10T06:36:33;4.30;;;3.90;;
45650;SDS011;31365;48.858;8.530;2023-06-10T06:39:02;5.28;;;4.50;;
45650;SDS011;31365;48.858;8.530;2023-06-10T06:41:32;4.07;;;3.78;;
45650;SDS011;31365;48.858;8.530;2023-06-10T06:44:01;4.25;;;3.85;;
45650;SDS011;31365;48.858;8.530;2023-06-10T06:46:32;3.88;;;3.58;;
45650;SDS011;31365;48.858;8.530;2023-06-10T06:49:00;4.65;;;4.03;;
45650;SDS011;31365;48.858;8.530;2023-06-10T06:51:29;5.70;;;4.55;;
45650;SDS011;31365;48.858;8.530;2023-06-10T06:53:57;8.75;;;4.57;;
45650;SDS011;31365;48.858;8.530;2023-06-10T06:56:26;4.82;;;4.32;;
45650;SDS011;31365;48.858;8.530;2023-06-10T06:58:56;5.50;;;4.75;;
45650;SDS011;31365;48.858;8.530;2023-06-10T07:01:24;4.45;;;4.05;;
45650;SDS011;31365;48.858;8.530;2023-06-10T07:03:53;4.57;;;4.18;;
45650;SDS011;31365;48.858;8.530;2023-06-10T07:06:21;4.32;;;4.03;;
45650;SDS011;31365;48.858;8.530;2023-06-10T07:08:51;4.60;;;4.20;;
45650;SDS011;31365;48.858;8.530;2023-06-10T07:11:20;4.38;;;4.03;;
45650;SDS011;31365;48.858;8.530;2023-06-10T07:13:49;6.28;;;3.92;;
45650;SDS011;31365;48.858;8.530;2023-06-10T07:16:19;5.35;;;4.95;;
45650;SDS011;31365;48.858;8.530;2023-06-10T07:18:48;4.53;;;4.15;;
45650;SDS011;31365;48.858;8.530;2023-06-10T07:21:17;5.57;;;4.68;;
45650;SDS011;31365;48.858;8.530;2023-06-10T07:23:47;6.70;;;4.55;;
45650;SDS011;31365;48.858;8.530;2023-06-10T07:26:15;4.88;;;4.00;;
45650;SDS011;31365;48.858;8.530;2023-06-10T07:28:44;4.28;;;3.97;;
45650;SDS011;31365;48.858;8.530;2023-06-10T07:31:12;5.15;;;4.75;;
45650;SDS011;31365;48.858;8.530;2023-06-10T07:33:43;3.97;;;3.67;;
45650;SDS011;31365;48.858;8.530;2023-06-10T07:36:12;4.45;;;3.97;;
45650;SDS011;31365;48.858;8.530;2023-06-10T07:38:41;4.05;;;3.75;;
45650;SDS011;31365;48.858;8.530;2023-06-10T07:41:09;4.22;;;3.92;;
45650;SDS011;31365;48.858;8.530;2023-06-10T07:43:38;3.80;;;3.50;;
45650;SDS011;31365;48.858;8.530;2023-06-10T07:46:07;4.13;;;3.72;;
45650;SDS011;31365;48.858;8.530;2023-06-10T07:48:35;4.93;;;3.50;;
45650;SDS011;31365;48.858;8.530;2023-06-10T07:51:05;3.72;;;3.42;;
45650;SDS011;31365;48.858;8.530;2023-06-10T07:53:33;4.32;;;4.00;;
45650;SDS011;31365;48.858;8.530;2023-06-10T07:56:02;4.65;;;3.15;;
45650;SDS011;31365;48.858;8.530;2023-06-10T07:58:31;3.50;;;3.20;;
45650;SDS011;31365;48.858;8.530;2023-06-10T08:01:00;3.22;;;2.97;;
45650;SDS011;31365;48.858;8.530;2023-06-10T08:03:28;4.55;;;3.75;;
45650;SDS011;31365;48.858;8.530;2023-06-10T08:05:57;3.60;;;3.30;;
45650;SDS011;31365;48.858;8.530;2023-06-10T08:08:27;3.80;;;3.42;;
45650;SDS011;31365;48.858;8.530;2023-06-10T08:10:55;5.70;;;3.95;;
45650;SDS011;31365;48.858;8.530;2023-06-10T08:13:24;4.38;;;3.97;;
45650;SDS011;31365;48.858;8.530;2023-06-10T08:15:53;4.68;;;4.28;;
45650;SDS011;31365;48.858;8.530;2023-06-10T08:18:21;3.75;;;3.45;;
45650;SDS011;31365;48.858;8.530;2023-06-10T08:20:50;3.90;;;3.60;;
45650;SDS011;31365;48.858;8.530;2023-06-10T08:23:18;3.70;;;3.50;;
45650;SDS011;31365;48.858;8.530;2023-06-10T08:25:48;3.63;;;3.33;;
45650;SDS011;31365;48.858;8.530;2023-06-10T08:28:17;4.53;;;3.80;;
45650;SDS011;31365;48.858;8.530;2023-06-10T08:30:46;3.92;;;3.63;;
45650;SDS011;31365;48.858;8.530;2023-06-10T08:33:15;4.00;;;3.70;;
45650;SDS011;31365;48.858;8.530;2023-06-10T08:35:44;3.55;;;3.35;;
45650;SDS011;31365;48.858;8.530;2023-06-10T08:38:12;3.60;;;3.30;;
45650;SDS011;31365;48.858;8.530;2023-06-10T08:40:42;3.38;;;3.17;;
45650;SDS011;31365;48.858;8.530;2023-06-10T08:43:14;3.70;;;3.40;;
45650;SDS011;31365;48.858;8.530;2023-06-10T08:45:50;4.10;;;3.80;;
45650;SDS011;31365;48.858;8.530;2023-06-10T08:48:27;4.60;;;3.38;;
45650;SDS011;31365;48.858;8.530;2023-06-10T08:50:59;4.32;;;3.50;;
45650;SDS011;31365;48.858;8.530;2023-06-10T08:53:33;4.20;;;3.90;;
45650;SDS011;31365;48.858;8.530;2023-06-10T08:56:06;4.00;;;3.70;;
45650;SDS011;31365;48.858;8.530;2023-06-10T08:58:37;5.47;;;4.40;;
45650;SDS011;31365;48.858;8.530;2023-06-10T09:01:08;9.73;;;4.85;;
45650;SDS011;31365;48.858;8.530;2023-06-10T09:03:38;5.43;;;4.50;;
45650;SDS011;31365;48.858;8.530;2023-06-10T09:06:09;5.43;;;4.93;;
45650;SDS011;31365;48.858;8.530;2023-06-10T09:08:38;4.93;;;4.53;;
45650;SDS011;31365;48.858;8.530;2023-06-10T09:11:08;4.60;;;4.20;;
45650;SDS011;31365;48.858;8.530;2023-06-10T09:13:38;4.78;;;4.28;;
45650;SDS011;31365;48.858;8.530;2023-06-10T09:16:06;6.65;;;4.90;;
45650;SDS011;31365;48.858;8.530;2023-06-10T09:18:35;4.32;;;3.88;;
45650;SDS011;31365;48.858;8.530;2023-06-10T09:21:04;4.20;;;3.80;;
45650;SDS011;31365;48.858;8.530;2023-06-10T09:23:33;4.40;;;4.00;;
45650;SDS011;31365;48.858;8.530;2023-06-10T09:26:07;4.15;;;3.75;;
45650;SDS011;31365;48.858;8.530;2023-06-10T09:28:40;6.53;;;3.95;;
45650;SDS011;31365;48.858;8.530;2023-06-10T09:31:12;4.35;;;3.95;;
45650;SDS011;31365;48.858;8.530;2023-06-10T09:33:45;5.00;;;4.47;;
45650;SDS011;31365;48.858;8.530;2023-06-10T09:36:20;6.00;;;4.15;;
45650;SDS011;31365;48.858;8.530;2023-06-10T09:38:50;4.40;;;4.00;;
45650;SDS011;31365;48.858;8.530;2023-06-10T09:41:19;3.25;;;2.90;;
45650;SDS011;31365;48.858;8.530;2023-06-10T09:43:49;3.30;;;3.00;;
45650;SDS011;31365;48.858;8.530;2023-06-10T09:46:18;3.90;;;3.60;;
45650;SDS011;31365;48.858;8.530;2023-06-10T09:48:47;4.93;;;3.80;;
45650;SDS011;31365;48.858;8.530;2023-06-10T09:51:16;4.05;;;3.72;;
45650;SDS011;31365;48.858;8.530;2023-06-10T09:53:47;3.85;;;3.53;;
45650;SDS011;31365;48.858;8.530;2023-06-10T09:56:17;5.18;;;3.97;;
45650;SDS011;31365;48.858;8.530;2023-06-10T09:58:47;3.88;;;3.45;;
45650;SDS011;31365;48.858;8.530;2023-06-10T10:01:22;4.00;;;3.17;;
45650;SDS011;31365;48.858;8.530;2023-06-10T10:03:52;3.63;;;3.25;;
45650;SDS011;31365;48.858;8.530;2023-06-10T10:06:20;3.75;;;3.45;;
45650;SDS011;31365;48.858;8.530;2023-06-10T10:08:49;3.50;;;3.30;;
45650;SDS011;31365;48.858;8.530;2023-06-10T10:11:20;4.00;;;3.63;;
45650;SDS011;31365;48.858;8.530;2023-06-10T10:13:54;4.07;;;3.67;;
45650;SDS011;31365;48.858;8.530;2023-06-10T10:16:26;4.15;;;3.85;;
45650;SDS011;31365;48.858;8.530;2023-06-10T10:19:01;5.32;;;3.80;;
45650;SDS011;31365;48.858;8.530;2023-06-10T10:21:37;4.40;;;4.03;;
45650;SDS011;31365;48.858;8.530;2023-06-10T10:24:12;4.28;;;3.88;;
45650;SDS011;31365;48.858;8.530;2023-06-10T10:26:47;3.97;;;3.67;;
45650;SDS011;31365;48.858;8.530;2023-06-10T10:29:22;4.30;;;3.70;;
45650;SDS011;31365;48.858;8.530;2023-06-10T10:31:59;3.97;;;3.67;;
45650;SDS011;31365;48.858;8.530;2023-06-10T10:34:49;5.32;;;3.75;;
45650;SDS011;31365;48.858;8.530;2023-06-10T10:37:32;4.47;;;3.90;;
45650;SDS011;31365;48.858;8.530;2023-06-10T10:40:01;4.03;;;3.72;;
45650;SDS011;31365;48.858;8.530;2023-06-10T10:42:34;4.18;;;3.83;;
45650;SDS011;31365;48.858;8.530;2023-06-10T10:45:05;4.07;;;3.78;;
45650;SDS011;31365;48.858;8.530;2023-06-10T10:47:39;4.00;;;3.60;;
45650;SDS011;31365;48.858;8.530;2023-06-10T10:50:14;3.85;;;3.50;;
45650;SDS011;31365;48.858;8.530;2023-06-10T10:52:54;5.20;;;4.13;;
45650;SDS011;31365;48.858;8.530;2023-06-10T10:55:27;4.15;;;3.75;;
45650;SDS011;31365;48.858;8.530;2023-06-10T10:57:57;4.20;;;3.90;;
45650;SDS011;31365;48.858;8.530;2023-06-10T11:00:29;4.57;;;3.70;;
45650;SDS011;31365;48.858;8.530;2023-06-10T11:02:59;4.15;;;3.78;;
45650;SDS011;31365;48.858;8.530;2023-06-10T11:05:56;3.65;;;3.35;;
45650;SDS011;31365;48.858;8.530;2023-06-10T11:11:19;3.33;;;2.83;;
45650;SDS011;31365;48.858;8.530;2023-06-10T11:13:58;5.45;;;3.78;;
45650;SDS011;31365;48.858;8.530;2023-06-10T11:16:40;3.38;;;2.88;;
45650;SDS011;31365;48.858;8.530;2023-06-10T11:19:11;5.63;;;3.50;;
45650;SDS011;31365;48.858;8.530;2023-06-10T11:22:01;3.88;;;3.42;;
45650;SDS011;31365;48.858;8.530;2023-06-10T11:24:36;4.30;;;3.90;;
45650;SDS011;31365;48.858;8.530;2023-06-10T11:27:15;3.78;;;3.47;;
45650;SDS011;31365;48.858;8.530;2023-06-10T11:29:55;4.03;;;3.67;;
45650;SDS011;31365;48.858;8.530;2023-06-10T11:32:29;4.97;;;3.50;;
45650;SDS011;31365;48.858;8.530;2023-06-10T11:34:59;4.18;;;3.78;;
45650;SDS011;31365;48.858;8.530;2023-06-10T11:37:32;4.18;;;3.75;;
45650;SDS011;31365;48.858;8.530;2023-06-10T11:40:00;3.80;;;3.50;;
45650;SDS011;31365;48.858;8.530;2023-06-10T11:42:30;3.58;;;3.28;;
45650;SDS011;31365;48.858;8.530;2023-06-10T11:44:59;3.40;;;3.20;;
45650;SDS011;31365;48.858;8.530;2023-06-10T11:47:30;6.35;;;3.70;;
45650;SDS011;31365;48.858;8.530;2023-06-10T11:49:59;3.70;;;3.40;;
45650;SDS011;31365;48.858;8.530;2023-06-10T11:52:29;5.60;;;3.58;;
45650;SDS011;31365;48.858;8.530;2023-06-10T11:55:00;3.72;;;3.38;;
45650;SDS011;31365;48.858;8.530;2023-06-10T11:57:33;3.30;;;3.10;;
45650;SDS011;31365;48.858;8.530;2023-06-10T12:00:04;3.25;;;3.05;;
45650;SDS011;31365;48.858;8.530;2023-06-10T12:02:38;2.90;;;2.70;;
45650;SDS011;31365;48.858;8.530;2023-06-10T12:05:10;3.58;;;3.20;;
45650;SDS011;31365;48.858;8.530;2023-06-10T12:07:39;3.78;;;3.47;;
45650;SDS011;31365;48.858;8.530;2023-06-10T12:10:08;5.00;;;3.30;;
45650;SDS011;31365;48.858;8.530;2023-06-10T12:12:52;3.38;;;3.08;;
45650;SDS011;31365;48.858;8.530;2023-06-10T12:15:23;3.53;;;3.22;;
45650;SDS011;31365;48.858;8.530;2023-06-10T12:17:56;3.78;;;3.45;;
45650;SDS011;31365;48.858;8.530;2023-06-10T12:20:26;4.07;;;3.50;;
45650;SDS011;31365;48.858;8.530;2023-06-10T12:22:58;3.22;;;2.92;;
45650;SDS011;31365;48.858;8.530;2023-06-10T12:25:30;3.40;;;3.10;;
45650;SDS011;31365;48.858;8.530;2023-06-10T12:28:00;3.35;;;3.15;;
45650;SDS011;31365;48.858;8.530;2023-06-10T12:30:29;3.67;;;3.40;;
45650;SDS011;31365;48.858;8.530;2023-06-10T12:33:00;3.88;;;3.33;;
45650;SDS011;31365;48.858;8.530;2023-06-10T12:35:31;4.90;;;3.20;;
45650;SDS011;31365;48.858;8.530;2023-06-10T12:38:01;3.28;;;2.97;;
45650;SDS011;31365;48.858;8.530;2023-06-10T12:40:34;4.03;;;3.72;;
45650;SDS011;31365;48.858;8.530;2023-06-10T12:43:06;3.85;;;3.45;;
45650;SDS011;31365;48.858;8.530;2023-06-10T12:45:37;3.60;;;3.30;;
45650;SDS011;31365;48.858;8.530;2023-06-10T12:48:12;3.97;;;3.28;;
45650;SDS011;31365;48.858;8.530;2023-06-10T12:50:50;3.58;;;3.10;;
45650;SDS011;31365;48.858;8.530;2023-06-10T12:53:21;3.60;;;3.30;;
45650;SDS011;31365;48.858;8.530;2023-06-10T12:55:50;3.47;;;2.95;;
45650;SDS011;31365;48.858;8.530;2023-06-10T12:58:20;3.60;;;3.10;;
45650;SDS011;31365;48.858;8.530;2023-06-10T13:00:50;3.42;;;3.13;;
45650;SDS011;31365;48.858;8.530;2023-06-10T13:03:21;3.22;;;3.00;;
45650;SDS011;31365;48.858;8.530;2023-06-10T13:05:49;3.10;;;2.90;;
45650;SDS011;31365;48.858;8.530;2023-06-10T13:08:18;2.90;;;2.70;;
45650;SDS011;31365;48.858;8.530;2023-06-10T13:10:47;2.72;;;2.53;;
45650;SDS011;31365;48.858;8.530;2023-06-10T13:13:16;2.63;;;2.42;;
45650;SDS011;31365;48.858;8.530;2023-06-10T13:15:45;3.10;;;2.90;;
45650;SDS011;31365;48.858;8.530;2023-06-10T13:18:14;4.18;;;2.92;;
45650;SDS011;31365;48.858;8.530;2023-06-10T13:20:46;3.00;;;2.70;;
45650;SDS011;31365;48.858;8.530;2023-06-10T13:23:14;2.60;;;2.40;;
45650;SDS011;31365;48.858;8.530;2023-06-10T13:25:43;2.80;;;2.60;;
45650;SDS011;31365;48.858;8.530;2023-06-10T13:28:12;3.25;;;3.00;;
45650;SDS011;31365;48.858;8.530;2023-06-10T13:30:41;3.30;;;3.00;;
45650;SDS011;31365;48.858;8.530;2023-06-10T13:33:10;3.08;;;2.88;;
45650;SDS011;31365;48.858;8.530;2023-06-10T13:35:40;2.95;;;2.65;;
45650;SDS011;31365;48.858;8.530;2023-06-10T13:38:10;3.05;;;2.85;;
45650;SDS011;31365;48.858;8.530;2023-06-10T13:40:39;3.90;;;3.22;;
45650;SDS011;31365;48.858;8.530;2023-06-10T13:43:07;3.17;;;2.83;;
45650;SDS011;31365;48.858;8.530;2023-06-10T13:45:36;2.67;;;2.47;;
45650;SDS011;31365;48.858;8.530;2023-06-10T13:48:04;2.97;;;2.67;;
45650;SDS011;31365;48.858;8.530;2023-06-10T13:50:34;3.25;;;2.83;;
45650;SDS011;31365;48.858;8.530;2023-06-10T13:53:02;2.58;;;2.38;;
45650;SDS011;31365;48.858;8.530;2023-06-10T13:55:32;2.47;;;2.38;;
45650;SDS011;31365;48.858;8.530;2023-06-10T13:58:00;2.70;;;2.50;;
45650;SDS011;31365;48.858;8.530;2023-06-10T14:00:29;3.25;;;2.50;;
45650;SDS011;31365;48.858;8.530;2023-06-10T14:02:58;2.80;;;2.50;;
45650;SDS011;31365;48.858;8.530;2023-06-10T14:05:27;3.20;;;2.60;;
45650;SDS011;31365;48.858;8.530;2023-06-10T14:07:58;4.65;;;2.75;;
45650;SDS011;31365;48.858;8.530;2023-06-10T14:10:27;3.08;;;2.78;;
45650;SDS011;31365;48.858;8.530;2023-06-10T14:12:59;2.55;;;2.35;;
45650;SDS011;31365;48.858;8.530;2023-06-10T14:15:29;3.20;;;2.90;;
45650;SDS011;31365;48.858;8.530;2023-06-10T14:17:59;3.25;;;2.78;;
45650;SDS011;31365;48.858;8.530;2023-06-10T14:20:29;5.05;;;2.47;;
45650;SDS011;31365;48.858;8.530;2023-06-10T14:22:58;4.35;;;3.40;;
45650;SDS011;31365;48.858;8.530;2023-06-10T14:25:27;3.47;;;2.63;;
45650;SDS011;31365;48.858;8.530;2023-06-10T14:28:00;2.88;;;2.67;;
45650;SDS011;31365;48.858;8.530;2023-06-10T14:30:30;2.63;;;2.42;;
45650;SDS011;31365;48.858;8.530;2023-06-10T14:32:58;2.97;;;2.72;;
45650;SDS011;31365;48.858;8.530;2023-06-10T14:35:27;2.80;;;2.60;;
45650;SDS011;31365;48.858;8.530;2023-06-10T14:37:55;3.65;;;2.45;;
45650;SDS011;31365;48.858;8.530;2023-06-10T14:40:24;3.13;;;2.85;;
45650;SDS011;31365;48.858;8.530;2023-06-10T14:42:55;6.68;;;2.92;;
45650;SDS011;31365;48.858;8.530;2023-06-10T14:45:26;2.65;;;2.45;;
45650;SDS011;31365;48.858;8.530;2023-06-10T14:47:55;3.40;;;2.97;;
45650;SDS011;31365;48.858;8.530;2023-06-10T14:50:24;2.58;;;2.40;;
45650;SDS011;31365;48.858;8.530;2023-06-10T14:52:53;8.13;;;2.50;;
45650;SDS011;31365;48.858;8.530;2023-06-10T14:55:22;3.00;;;2.70;;
45650;SDS011;31365;48.858;8.530;2023-06-10T14:57:51;2.75;;;2.55;;
45650;SDS011;31365;48.858;8.530;2023-06-10T15:00:19;3.47;;;2.20;;
45650;SDS011;31365;48.858;8.530;2023-06-10T15:02:51;3.80;;;2.67;;
45650;SDS011;31365;48.858;8.530;2023-06-10T15:05:22;2.38;;;2.28;;
45650;SDS011;31365;48.858;8.530;2023-06-10T15:07:52;2.53;;;2.33;;
45650;SDS011;31365;48.858;8.530;2023-06-10T16:18:10;2.53;;;2.33;;
45650;SDS011;31365;48.858;8.530;2023-06-10T16:20:40;2.92;;;2.72;;
45650;SDS011;31365;48.858;8.530;2023-06-10T16:23:08;2.92;;;2.67;;
45650;SDS011;31365;48.858;8.530;2023-06-10T16:25:37;3.00;;;2.80;;
45650;SDS011;31365;48.858;8.530;2023-06-10T16:28:07;3.65;;;2.70;;
45650;SDS011;31365;48.858;8.530;2023-06-10T16:30:36;2.42;;;2.33;;
45650;SDS011;31365;48.858;8.530;2023-06-10T16:33:04;3.67;;;2.30;;
45650;SDS011;31365;48.858;8.530;2023-06-10T16:35:35;2.95;;;2.72;;
45650;SDS011;31365;48.858;8.530;2023-06-10T16:38:03;2.80;;;2.58;;
45650;SDS011;31365;48.858;8.530;2023-06-10T16:40:32;2.70;;;2.50;;
45650;SDS011;31365;48.858;8.530;2023-06-10T16:43:01;2.63;;;2.42;;
45650;SDS011;31365;48.858;8.530;2023-06-10T16:45:29;2.97;;;2.78;;
45650;SDS011;31365;48.858;8.530;2023-06-10T16:47:58;2.95;;;2.50;;
45650;SDS011;31365;48.858;8.530;2023-06-10T16:50:27;2.63;;;2.25;;